createdAt,value
2019-04-04T00:02:14.858Z,11.00
2019-04-04T00:04:44.335Z,11.00
2019-04-04T00:07:13.799Z,11.00
2019-04-04T00:09:43.237Z,11.00
2019-04-04T00:12:12.705Z,11.10
2019-04-04T00:14:43.825Z,11.00
2019-04-04T00:17:13.234Z,11.10
2019-04-04T00:19:42.696Z,11.00
2019-04-04T00:22:12.161Z,11.00
2019-04-04T00:24:41.595Z,10.90
2019-04-04T00:27:11.207Z,10.90
2019-04-04T00:29:42.545Z,10.80
2019-04-04T00:32:12.029Z,10.70
2019-04-04T00:34:41.542Z,10.80
2019-04-04T00:37:11.262Z,10.80
2019-04-04T00:39:40.728Z,10.80
2019-04-04T00:42:10.157Z,10.70
2019-04-04T00:44:39.611Z,10.70
2019-04-04T00:47:09.109Z,10.50
2019-04-04T00:49:38.585Z,10.50
2019-04-04T00:52:09.943Z,10.40
2019-04-04T00:54:39.144Z,10.50
2019-04-04T00:57:08.600Z,10.40
2019-04-04T00:59:38.049Z,10.50
2019-04-04T01:02:07.543Z,10.50
2019-04-04T01:04:37.352Z,10.50
2019-04-04T01:07:06.788Z,10.40
2019-04-04T01:09:36.325Z,10.50
2019-04-04T01:12:05.771Z,10.40
2019-04-04T01:14:35.198Z,10.40
2019-04-04T01:17:04.855Z,10.50
2019-04-04T01:19:34.469Z,10.50
2019-04-04T01:22:03.889Z,10.40
2019-04-04T01:24:33.366Z,10.50
2019-04-04T01:27:04.146Z,10.60
2019-04-04T01:29:33.954Z,10.60
2019-04-04T01:32:03.382Z,10.60
2019-04-04T01:34:32.858Z,10.70
2019-04-04T01:37:02.368Z,10.70
2019-04-04T01:39:32.023Z,10.60
2019-04-04T01:42:01.538Z,10.60
2019-04-04T01:44:30.965Z,10.60
2019-04-04T01:47:00.422Z,10.60
2019-04-04T01:49:30.231Z,10.60
2019-04-04T01:51:59.627Z,10.50
2019-04-04T01:54:29.959Z,10.50
2019-04-04T01:57:00.163Z,10.40
2019-04-04T01:59:29.554Z,10.40
2019-04-04T02:01:58.980Z,10.50
2019-04-04T02:04:28.409Z,10.40
2019-04-04T02:06:59.168Z,10.40
2019-04-04T02:09:28.942Z,10.40
2019-04-04T02:11:58.336Z,10.40
2019-04-04T02:14:27.779Z,10.30
2019-04-04T02:16:57.217Z,10.30
2019-04-04T02:19:26.670Z,10.20
2019-04-04T02:21:56.051Z,10.20
2019-04-04T02:24:25.481Z,10.20
2019-04-04T02:26:54.926Z,10.20
2019-04-04T02:29:24.354Z,10.20
2019-04-04T02:31:56.640Z,10.20
2019-04-04T02:34:26.064Z,10.10
2019-04-04T02:36:55.550Z,10.10
2019-04-04T02:39:24.981Z,10.00
2019-04-04T02:41:54.409Z,10.00
2019-04-04T02:44:23.841Z,10.00
2019-04-04T02:46:53.301Z,9.90
2019-04-04T02:49:22.691Z,9.90
2019-04-04T02:51:52.130Z,9.90
2019-04-04T02:54:24.212Z,9.90
2019-04-04T02:56:52.677Z,10.00
2019-04-04T02:59:22.213Z,9.90
2019-04-04T03:01:52.032Z,9.90
2019-04-04T03:04:21.941Z,9.90
2019-04-04T03:06:51.365Z,10.00
2019-04-04T03:09:20.773Z,10.00
2019-04-04T03:11:53.491Z,10.00
2019-04-04T03:14:21.566Z,10.00
2019-04-04T03:16:50.991Z,10.00
2019-04-04T03:19:20.380Z,9.90
2019-04-04T03:21:49.789Z,9.90
2019-04-04T03:24:19.256Z,9.90
2019-04-04T03:26:52.198Z,9.80
2019-04-04T03:29:19.748Z,9.80
2019-04-04T03:31:49.173Z,9.70
2019-04-04T03:34:18.606Z,9.70
2019-04-04T03:36:48.030Z,9.70
2019-04-04T03:39:19.575Z,9.70
2019-04-04T03:41:48.502Z,9.70
2019-04-04T03:44:20.201Z,9.60
2019-04-04T03:46:49.032Z,9.60
2019-04-04T03:49:23.379Z,9.60
2019-04-04T03:51:49.559Z,9.60
2019-04-04T03:54:23.397Z,9.50
2019-04-04T03:56:52.982Z,9.50
2019-04-04T03:59:22.419Z,9.50
2019-04-04T04:01:51.836Z,9.50
2019-04-04T04:04:21.298Z,9.50
2019-04-04T04:06:50.705Z,9.50
2019-04-04T04:09:23.480Z,9.50
2019-04-04T04:11:52.931Z,9.50
2019-04-04T04:14:22.777Z,9.50
2019-04-04T04:16:52.316Z,9.40
2019-04-04T04:19:24.213Z,9.40
2019-04-04T04:21:52.784Z,9.40
2019-04-04T04:24:22.234Z,9.30
2019-04-04T04:26:52.053Z,9.30
2019-04-04T04:29:21.523Z,9.20
2019-04-04T04:31:50.943Z,9.20
2019-04-04T04:34:20.365Z,9.30
2019-04-04T04:36:49.841Z,9.40
2019-04-04T04:39:19.241Z,9.40
2019-04-04T04:41:53.151Z,9.40
2019-04-04T04:44:19.695Z,9.40
2019-04-04T04:46:50.265Z,9.40
2019-04-04T04:49:23.182Z,9.40
2019-04-04T04:51:51.260Z,9.40
2019-04-04T04:54:22.839Z,9.30
2019-04-04T04:56:51.788Z,9.40
2019-04-04T04:59:21.217Z,9.40
2019-04-04T05:01:51.354Z,9.30
2019-04-04T05:04:20.935Z,9.30
2019-04-04T05:06:50.720Z,9.30
2019-04-04T05:09:20.117Z,9.30
2019-04-04T05:11:50.224Z,9.40
2019-04-04T05:14:20.276Z,9.40
2019-04-04T05:16:50.001Z,9.50
2019-04-04T05:19:19.788Z,9.50
2019-04-04T05:21:49.189Z,9.50
2019-04-04T05:24:18.770Z,9.50
2019-04-04T05:26:48.377Z,9.60
2019-04-04T05:29:17.784Z,9.70
2019-04-04T05:31:49.867Z,9.70
2019-04-04T05:34:18.258Z,9.70
2019-04-04T05:36:47.688Z,9.70
2019-04-04T05:39:36.137Z,9.70
2019-04-04T05:42:05.576Z,9.80
2019-04-04T05:44:35.016Z,9.80
2019-04-04T05:47:04.445Z,9.90
2019-04-04T05:49:33.863Z,9.90
2019-04-04T05:52:03.343Z,9.90
2019-04-04T05:54:32.729Z,10.00
2019-04-04T05:57:03.426Z,10.00
2019-04-04T05:59:32.951Z,10.10
2019-04-04T06:02:02.355Z,10.20
2019-04-04T06:04:31.759Z,10.20
2019-04-04T06:07:04.065Z,10.30
2019-04-04T06:09:32.405Z,10.30
2019-04-04T06:12:01.813Z,10.40
2019-04-04T06:14:31.276Z,10.50
2019-04-04T06:17:00.689Z,10.90
2019-04-04T06:19:30.151Z,11.50
2019-04-04T06:21:59.574Z,11.90
2019-04-04T06:24:29.362Z,12.20
2019-04-04T06:26:58.957Z,12.40
2019-04-04T06:29:28.364Z,12.80
2019-04-04T06:32:00.004Z,13.00
2019-04-04T06:34:29.179Z,13.00
2019-04-04T06:36:58.614Z,12.90
2019-04-04T06:39:28.015Z,13.00
2019-04-04T06:41:57.428Z,13.10
2019-04-04T06:44:26.842Z,13.20
2019-04-04T06:46:56.314Z,13.10
2019-04-04T06:49:28.696Z,13.20
2019-04-04T06:51:57.508Z,13.30
2019-04-04T06:54:26.924Z,13.50
2019-04-04T06:56:59.048Z,13.80
2019-04-04T06:59:27.474Z,13.90
2019-04-04T07:01:56.904Z,13.90
2019-04-04T07:04:26.669Z,14.20
2019-04-04T07:06:58.946Z,14.20
2019-04-04T07:09:27.175Z,14.20
2019-04-04T07:11:56.616Z,14.20
2019-04-04T07:14:26.046Z,14.20
2019-04-04T07:16:55.565Z,14.20
2019-04-04T07:19:25.061Z,14.10
2019-04-04T07:21:54.464Z,14.00
2019-04-04T07:24:23.909Z,14.10
2019-04-04T07:26:53.389Z,14.30
2019-04-04T07:29:23.049Z,14.20
2019-04-04T07:31:54.191Z,14.20
2019-04-04T07:34:23.725Z,14.30
2019-04-04T07:36:53.134Z,14.20
2019-04-04T07:39:23.914Z,14.30
2019-04-04T07:41:53.649Z,14.30
2019-04-04T07:44:23.371Z,14.40
2019-04-04T07:46:53.397Z,14.40
2019-04-04T07:49:23.795Z,14.50
2019-04-04T07:51:53.378Z,14.40
2019-04-04T07:54:22.813Z,14.20
2019-04-04T07:56:52.225Z,14.30
2019-04-04T07:59:23.160Z,14.30
2019-04-04T08:01:53.766Z,14.40
2019-04-04T08:04:23.507Z,14.50
2019-04-04T08:06:52.911Z,14.60
2019-04-04T08:09:22.375Z,14.80
2019-04-04T08:11:51.769Z,14.90
2019-04-04T08:14:21.170Z,14.90
2019-04-04T08:16:50.586Z,14.90
2019-04-04T08:19:20.071Z,15.00
2019-04-04T08:21:49.465Z,15.00
2019-04-04T08:24:18.909Z,15.00
2019-04-04T08:26:48.698Z,15.20
2019-04-04T08:29:18.131Z,15.40
2019-04-04T08:31:48.085Z,15.50
2019-04-04T08:34:17.585Z,15.50
2019-04-04T08:36:47.290Z,15.40
2019-04-04T08:39:16.912Z,15.30
2019-04-04T08:41:46.349Z,15.50
2019-04-04T08:44:15.769Z,15.60
2019-04-04T08:46:45.202Z,15.80
2019-04-04T08:49:14.600Z,16.10
2019-04-04T08:51:44.316Z,16.30
2019-04-04T08:54:13.757Z,16.50
2019-04-04T08:56:43.275Z,16.60
2019-04-04T08:59:12.864Z,16.50
2019-04-04T09:01:42.276Z,16.30
2019-04-04T09:04:11.709Z,16.40
2019-04-04T09:06:41.181Z,16.50
2019-04-04T09:09:10.967Z,16.60
2019-04-04T09:11:40.372Z,16.40
2019-04-04T09:14:10.738Z,16.60
2019-04-04T09:16:40.187Z,16.70
2019-04-04T09:19:09.607Z,17.00
2019-04-04T09:21:39.090Z,17.30
2019-04-04T09:24:08.513Z,17.60
2019-04-04T09:26:37.943Z,17.90
2019-04-04T09:29:07.710Z,17.70
2019-04-04T09:31:37.321Z,17.20
2019-04-04T09:34:06.752Z,17.00
2019-04-04T09:36:36.158Z,16.80
2019-04-04T09:39:07.376Z,16.90
2019-04-04T09:41:37.190Z,16.70
2019-04-04T09:44:06.632Z,16.80
2019-04-04T09:46:36.054Z,16.90
2019-04-04T09:49:05.557Z,17.10
2019-04-04T09:51:35.015Z,17.20
2019-04-04T09:54:04.501Z,17.60
2019-04-04T09:56:34.226Z,17.80
2019-04-04T09:59:03.872Z,17.80
2019-04-04T10:01:33.313Z,18.20
2019-04-04T10:04:02.725Z,18.60
2019-04-04T10:06:32.158Z,18.70
2019-04-04T10:09:14.770Z,18.80
2019-04-04T10:11:32.838Z,18.70
2019-04-04T10:14:04.102Z,18.80
2019-04-04T10:16:33.739Z,19.00
2019-04-04T10:19:03.199Z,18.90
2019-04-04T10:21:32.662Z,19.10
2019-04-04T10:24:02.103Z,19.20
2019-04-04T10:26:31.537Z,19.00
2019-04-04T10:29:00.944Z,18.90
2019-04-04T10:31:30.388Z,18.90
2019-04-04T10:33:59.869Z,19.20
2019-04-04T10:36:29.302Z,19.40
2019-04-04T10:38:59.095Z,19.60
2019-04-04T10:41:28.587Z,19.40
2019-04-04T10:43:58.009Z,19.40
2019-04-04T10:46:27.425Z,19.50
2019-04-04T10:48:56.858Z,19.90
2019-04-04T10:51:26.271Z,20.40
2019-04-04T10:53:56.033Z,20.50
2019-04-04T10:56:25.846Z,20.40
2019-04-04T10:58:55.252Z,20.10
2019-04-04T11:01:24.669Z,19.50
2019-04-04T11:03:54.101Z,19.20
2019-04-04T11:06:23.575Z,19.00
2019-04-04T11:08:53.286Z,19.10
2019-04-04T11:11:22.717Z,19.50
2019-04-04T11:13:52.142Z,20.00
2019-04-04T11:16:30.148Z,20.20
2019-04-04T11:18:52.682Z,20.20
2019-04-04T11:21:22.096Z,19.90
2019-04-04T11:23:51.554Z,19.80
2019-04-04T11:26:20.954Z,19.80
2019-04-04T11:28:50.413Z,19.80
2019-04-04T11:31:19.828Z,20.00
2019-04-04T11:33:49.259Z,20.30
2019-04-04T11:36:18.679Z,20.40
2019-04-04T11:38:48.453Z,20.50
2019-04-04T11:41:17.901Z,20.70
2019-04-04T11:43:47.318Z,20.70
2019-04-04T11:46:16.729Z,20.60
2019-04-04T11:48:46.497Z,20.80
2019-04-04T11:51:16.291Z,21.10
2019-04-04T11:53:45.720Z,21.20
2019-04-04T11:56:15.149Z,21.50
2019-04-04T11:58:44.593Z,21.50
2019-04-04T12:01:14.477Z,21.50
2019-04-04T12:03:43.891Z,21.70
2019-04-04T12:06:13.354Z,21.50
2019-04-04T12:08:42.760Z,21.60
2019-04-04T12:11:12.213Z,21.90
2019-04-04T12:13:41.632Z,22.20
2019-04-04T12:16:11.077Z,22.00
2019-04-04T12:18:40.534Z,21.50
2019-04-04T12:21:10.208Z,21.20
2019-04-04T12:23:40.008Z,20.90
2019-04-04T12:26:09.749Z,20.80
2019-04-04T12:28:39.182Z,20.90
2019-04-04T12:31:08.962Z,21.30
2019-04-04T12:33:38.793Z,21.40
2019-04-04T12:36:08.226Z,21.20
2019-04-04T12:38:41.017Z,21.10
2019-04-04T12:41:12.346Z,21.30
2019-04-04T12:43:41.799Z,21.30
2019-04-04T12:46:11.378Z,21.80
2019-04-04T12:48:40.747Z,22.30
2019-04-04T12:51:31.825Z,22.40
2019-04-04T12:54:01.312Z,22.20
2019-04-04T12:56:31.291Z,21.50
2019-04-04T12:59:00.993Z,21.60
2019-04-04T13:01:30.482Z,21.70
2019-04-04T13:03:59.916Z,21.70
2019-04-04T13:06:29.477Z,21.60
2019-04-04T13:08:59.426Z,21.50
2019-04-04T13:11:29.076Z,21.10
2019-04-04T13:13:58.851Z,21.10
2019-04-04T13:16:28.676Z,20.90
2019-04-04T13:18:58.281Z,20.50
2019-04-04T13:21:27.743Z,20.60
2019-04-04T13:23:57.514Z,20.60
2019-04-04T13:26:26.955Z,20.80
2019-04-04T13:28:56.386Z,21.00
2019-04-04T13:31:26.202Z,20.90
2019-04-04T13:33:55.702Z,20.90
2019-04-04T13:36:25.232Z,20.60
2019-04-04T13:38:55.189Z,20.40
2019-04-04T13:41:24.915Z,20.30
2019-04-04T13:43:54.441Z,20.20
2019-04-04T13:46:25.806Z,20.10
2019-04-04T13:48:56.662Z,20.10
2019-04-04T13:51:26.434Z,19.80
2019-04-04T13:53:55.888Z,19.80
2019-04-04T13:56:25.399Z,19.90
2019-04-04T13:58:54.939Z,19.70
2019-04-04T14:01:25.535Z,19.60
2019-04-04T14:03:54.946Z,19.70
2019-04-04T14:06:24.675Z,19.90
2019-04-04T14:08:54.665Z,20.10
2019-04-04T14:11:24.148Z,20.30
2019-04-04T14:13:53.562Z,20.10
2019-04-04T14:16:23.010Z,19.80
2019-04-04T14:18:52.518Z,19.50
2019-04-04T14:21:21.922Z,19.30
2019-04-04T14:23:52.983Z,19.10
2019-04-04T14:26:23.010Z,19.10
2019-04-04T14:28:52.615Z,19.10
2019-04-04T14:31:22.134Z,19.00
2019-04-04T14:33:51.679Z,19.20
2019-04-04T14:36:21.110Z,19.30
2019-04-04T14:38:50.626Z,19.30
2019-04-04T14:41:20.166Z,19.10
2019-04-04T14:43:49.578Z,19.00
2019-04-04T14:46:19.384Z,19.10
2019-04-04T14:48:48.866Z,18.90
2019-04-04T14:51:18.286Z,18.90
2019-04-04T14:53:48.108Z,18.90
2019-04-04T14:56:17.550Z,18.90
2019-04-04T14:58:46.957Z,18.90
2019-04-04T15:01:16.402Z,18.80
2019-04-04T15:03:45.948Z,18.70
2019-04-04T15:06:15.485Z,18.60
2019-04-04T15:08:44.904Z,18.60
2019-04-04T15:11:23.960Z,18.50
2019-04-04T15:13:45.704Z,18.50
2019-04-04T15:16:16.762Z,18.40
2019-04-04T15:18:46.382Z,18.30
2019-04-04T15:21:16.430Z,18.20
2019-04-04T15:23:45.970Z,18.10
2019-04-04T15:26:15.426Z,18.00
2019-04-04T15:28:44.855Z,18.10
2019-04-04T15:31:16.940Z,18.20
2019-04-04T15:33:46.344Z,18.20
2019-04-04T15:36:15.948Z,18.40
2019-04-04T15:38:45.302Z,18.50
2019-04-04T15:41:14.837Z,18.50
2019-04-04T15:43:44.336Z,18.50
2019-04-04T15:46:13.831Z,18.60
2019-04-04T15:48:43.235Z,18.70
2019-04-04T15:51:12.678Z,18.80
2019-04-04T15:53:42.470Z,18.80
2019-04-04T15:56:11.927Z,18.80
2019-04-04T15:58:41.348Z,18.70
2019-04-04T16:01:10.830Z,18.60
2019-04-04T16:03:40.357Z,18.50
2019-04-04T16:06:09.820Z,18.50
2019-04-04T16:08:39.303Z,18.50
2019-04-04T16:11:08.786Z,18.50
2019-04-04T16:13:38.201Z,18.40
2019-04-04T16:16:08.448Z,18.40
2019-04-04T16:18:37.939Z,18.30
2019-04-04T16:21:07.421Z,18.30
2019-04-04T16:23:36.878Z,18.20
2019-04-04T16:26:06.669Z,18.10
2019-04-04T16:28:36.230Z,18.00
2019-04-04T16:31:05.783Z,17.90
2019-04-04T16:33:35.217Z,17.80
2019-04-04T16:36:05.579Z,17.70
2019-04-04T16:38:35.570Z,17.70
2019-04-04T16:41:05.259Z,17.60
2019-04-04T16:43:34.728Z,17.50
2019-04-04T16:46:04.138Z,17.30
2019-04-04T16:48:33.613Z,17.30
2019-04-04T16:51:03.120Z,17.20
2019-04-04T16:53:32.562Z,17.10
2019-04-04T16:56:02.348Z,17.00
2019-04-04T16:58:31.834Z,17.00
2019-04-04T17:01:01.574Z,16.90
2019-04-04T17:03:31.013Z,16.80
2019-04-04T17:06:00.802Z,16.80
2019-04-04T17:08:30.262Z,16.70
2019-04-04T17:10:59.691Z,16.60
2019-04-04T17:13:29.202Z,16.60
2019-04-04T17:15:58.615Z,16.50
2019-04-04T17:18:28.038Z,16.40
2019-04-04T17:20:57.463Z,16.30
2019-04-04T17:23:27.225Z,16.30
2019-04-04T17:25:56.638Z,16.20
2019-04-04T17:28:26.096Z,16.20
2019-04-04T17:30:55.780Z,16.00
2019-04-04T17:33:25.286Z,16.10
2019-04-04T17:35:54.799Z,16.00
2019-04-04T17:38:24.234Z,15.90
2019-04-04T17:40:53.642Z,15.90
2019-04-04T17:43:23.194Z,15.80
2019-04-04T17:45:52.911Z,15.80
2019-04-04T17:48:22.381Z,15.70
2019-04-04T17:50:51.861Z,15.70
2019-04-04T17:53:21.690Z,15.60
2019-04-04T17:55:51.595Z,15.50
2019-04-04T17:58:22.147Z,15.50
2019-04-04T18:00:51.989Z,15.50
2019-04-04T18:03:21.442Z,15.40
2019-04-04T18:05:50.894Z,15.40
2019-04-04T18:08:20.374Z,15.20
2019-04-04T18:10:49.882Z,15.20
2019-04-04T18:13:19.393Z,15.20
2019-04-04T18:15:49.348Z,15.10
2019-04-04T18:18:19.150Z,15.10
2019-04-04T18:20:49.287Z,15.00
2019-04-04T18:23:19.085Z,15.00
2019-04-04T18:25:48.576Z,14.90
2019-04-04T18:28:19.969Z,15.00
2019-04-04T18:30:49.798Z,14.90
2019-04-04T18:33:19.961Z,14.90
2019-04-04T18:35:49.900Z,14.80
2019-04-04T18:38:19.802Z,14.70
2019-04-04T18:40:49.694Z,14.60
2019-04-04T18:43:19.247Z,14.60
2019-04-04T18:45:49.085Z,14.60
2019-04-04T18:48:19.308Z,14.60
2019-04-04T18:50:48.927Z,14.50
2019-04-04T18:53:18.856Z,14.50
2019-04-04T18:55:48.326Z,14.40
2019-04-04T18:58:17.797Z,14.40
2019-04-04T19:00:47.293Z,14.40
2019-04-04T19:03:17.512Z,14.30
2019-04-04T19:05:47.014Z,14.30
2019-04-04T19:08:16.961Z,14.20
2019-04-04T19:10:47.380Z,14.20
2019-04-04T19:13:16.822Z,14.20
2019-04-04T19:15:46.749Z,14.10
2019-04-04T19:18:16.231Z,14.10
2019-04-04T19:20:45.685Z,14.10
2019-04-04T19:23:15.598Z,14.10
2019-04-04T19:25:46.417Z,14.00
2019-04-04T19:28:15.974Z,13.90
2019-04-04T19:30:45.637Z,13.90
2019-04-04T19:33:15.168Z,13.90
2019-04-04T19:35:45.323Z,13.80
2019-04-04T19:38:15.165Z,13.60
2019-04-04T19:40:45.005Z,13.50
2019-04-04T19:43:18.234Z,13.40
2019-04-04T19:45:45.541Z,13.50
2019-04-04T19:48:15.362Z,13.30
2019-04-04T19:50:44.757Z,13.20
2019-04-04T19:53:14.214Z,13.20
2019-04-04T19:55:43.588Z,13.20
2019-04-04T19:58:13.057Z,13.20
2019-04-04T20:00:42.481Z,13.10
2019-04-04T20:03:11.969Z,13.10
2019-04-04T20:05:44.269Z,13.10
2019-04-04T20:08:12.453Z,13.00
2019-04-04T20:10:41.853Z,13.00
2019-04-04T20:13:11.409Z,13.00
2019-04-04T20:15:40.844Z,12.90
2019-04-04T20:18:10.641Z,13.00
2019-04-04T20:20:40.503Z,12.90
2019-04-04T20:23:10.042Z,13.00
2019-04-04T20:25:39.396Z,13.00
2019-04-04T20:28:08.829Z,13.10
2019-04-04T20:30:39.504Z,13.00
2019-04-04T20:33:08.991Z,13.00
2019-04-04T20:35:38.403Z,13.00
2019-04-04T20:38:07.964Z,12.90
2019-04-04T20:40:37.448Z,12.80
2019-04-04T20:43:06.893Z,12.80
2019-04-04T20:45:36.724Z,12.70
2019-04-04T20:48:06.270Z,12.70
2019-04-04T20:50:36.345Z,12.60
2019-04-04T20:53:05.758Z,12.60
2019-04-04T20:55:35.190Z,12.70
2019-04-04T20:58:04.615Z,12.80
2019-04-04T21:00:34.122Z,12.80
2019-04-04T21:03:03.553Z,12.80
2019-04-04T21:05:32.953Z,12.70
2019-04-04T21:08:02.379Z,12.70
2019-04-04T21:10:32.885Z,12.60
2019-04-04T21:13:02.289Z,12.60
2019-04-04T21:15:31.750Z,12.80
2019-04-04T21:18:01.368Z,12.80
2019-04-04T21:20:30.882Z,12.80
2019-04-04T21:23:00.296Z,12.70
2019-04-04T21:25:30.083Z,12.70
2019-04-04T21:28:01.825Z,12.70
2019-04-04T21:30:31.269Z,12.60
2019-04-04T21:33:00.760Z,12.50
2019-04-04T21:35:30.225Z,12.60
2019-04-04T21:37:59.760Z,12.60
2019-04-04T21:40:29.170Z,12.60
2019-04-04T21:42:58.575Z,12.50
2019-04-04T21:45:27.993Z,12.50
2019-04-04T21:47:57.502Z,12.50
2019-04-04T21:50:27.103Z,12.50
2019-04-04T21:52:56.857Z,12.40
2019-04-04T21:55:26.337Z,12.30
2019-04-04T21:57:55.890Z,12.30
2019-04-04T22:00:27.228Z,12.30
2019-04-04T22:02:56.688Z,12.40
2019-04-04T22:05:26.121Z,12.50
2019-04-04T22:07:55.901Z,12.60
2019-04-04T22:10:25.306Z,12.60
2019-04-04T22:12:54.771Z,12.70
2019-04-04T22:15:24.546Z,12.70
2019-04-04T22:17:53.993Z,12.70
2019-04-04T22:20:23.428Z,12.70
2019-04-04T22:22:52.856Z,12.70
2019-04-04T22:25:22.298Z,12.70
2019-04-04T22:27:51.766Z,12.70
2019-04-04T22:30:21.402Z,12.70
2019-04-04T22:32:51.169Z,12.70
2019-04-04T22:35:20.562Z,12.60
2019-04-04T22:37:50.033Z,12.50
2019-04-04T22:40:19.439Z,12.50
2019-04-04T22:42:48.913Z,12.50
2019-04-04T22:45:18.334Z,12.50
2019-04-04T22:47:47.773Z,12.40
2019-04-04T22:50:17.204Z,12.40
2019-04-04T22:52:46.665Z,12.40
2019-04-04T22:55:16.094Z,12.40
2019-04-04T22:57:45.506Z,12.40
2019-04-04T23:00:15.400Z,12.30
2019-04-04T23:02:44.826Z,12.30
2019-04-04T23:05:14.225Z,12.30
2019-04-04T23:07:43.642Z,12.30
2019-04-04T23:10:13.280Z,12.20
2019-04-04T23:12:42.727Z,12.20
2019-04-04T23:15:12.621Z,12.30
2019-04-04T23:17:42.033Z,12.30
2019-04-04T23:20:11.517Z,12.40
2019-04-04T23:22:52.261Z,12.40
2019-04-04T23:25:12.006Z,12.40
2019-04-04T23:27:41.419Z,12.40
2019-04-04T23:30:10.963Z,12.40
2019-04-04T23:32:40.437Z,12.30
2019-04-04T23:35:10.370Z,12.40
2019-04-04T23:37:39.801Z,12.40
2019-04-04T23:40:09.235Z,12.20
2019-04-04T23:42:38.654Z,12.20
2019-04-04T23:45:08.178Z,12.30
2019-04-04T23:47:43.227Z,12.40
2019-04-04T23:50:08.665Z,12.30
2019-04-04T23:52:38.111Z,12.30
2019-04-04T23:55:07.873Z,12.30
2019-04-04T23:57:37.266Z,12.30
